Time;durP1;ratioP1;P1;durP2;ratioP2;P2;SDS_P1;SDS_P2;PMS_P1;PMS_P2;Temp;Humidity;BMP_temperature;BMP_pressure;BME280_temperature;BME280_humidity;BME280_pressure;Samples;Min_cycle;Max_cycle;Signal;HPM_P1;HPM_P2
2021/01/19 00:01:36;;;;;;;1.93;1.10;;;21.40;49.20;;;;;;5013027;28;20180;-65
2021/01/19 00:04:01;;;;;;;1.60;1.10;;;21.30;49.20;;;;;;5013028;28;20422;-65
2021/01/19 00:06:27;;;;;;;1.30;0.97;;;21.30;49.30;;;;;;5013011;28;20204;-65
2021/01/19 00:08:52;;;;;;;1.50;1.10;;;21.30;49.80;;;;;;5013277;28;20191;-65
2021/01/19 00:11:18;;;;;;;1.30;1.17;;;21.30;49.30;;;;;;5011676;28;20216;-65
2021/01/19 00:13:44;;;;;;;0.90;0.80;;;21.30;49.30;;;;;;5012954;28;20196;-65
2021/01/19 00:16:09;;;;;;;1.37;1.10;;;21.30;49.30;;;;;;5012952;28;20207;-65
2021/01/19 00:18:35;;;;;;;1.00;0.87;;;21.30;49.30;;;;;;5012945;28;20243;-65
2021/01/19 00:21:00;;;;;;;1.20;0.97;;;21.20;49.20;;;;;;5012860;28;20523;-65
2021/01/19 00:23:26;;;;;;;1.20;1.00;;;21.30;49.30;;;;;;5012967;28;20246;-65
2021/01/19 00:25:52;;;;;;;1.30;1.03;;;21.30;49.30;;;;;;5012796;28;20208;-65
2021/01/19 00:28:17;;;;;;;1.57;1.23;;;21.30;49.30;;;;;;5011553;28;20176;-65
2021/01/19 00:30:43;;;;;;;1.30;1.00;;;21.30;49.40;;;;;;5012819;28;20255;-64
2021/01/19 00:33:10;;;;;;;1.20;0.80;;;21.20;49.30;;;;;;5012676;28;20191;-65
2021/01/19 00:35:37;;;;;;;1.57;1.00;;;21.20;49.30;;;;;;5011957;28;20418;-65
2021/01/19 00:38:04;;;;;;;1.10;1.00;;;21.20;49.30;;;;;;5012860;28;20399;-65
2021/01/19 00:40:30;;;;;;;1.87;1.57;;;21.20;49.30;;;;;;5012770;28;20473;-65
2021/01/19 00:42:57;;;;;;;1.17;1.00;;;21.20;49.40;;;;;;5012966;28;20423;-65
2021/01/19 00:45:23;;;;;;;1.23;1.00;;;21.20;49.40;;;;;;5013065;28;20906;-65
2021/01/19 00:47:49;;;;;;;1.20;1.00;;;21.20;49.40;;;;;;5011458;28;20407;-65
2021/01/19 00:50:14;;;;;;;1.30;1.00;;;21.20;49.40;;;;;;5012839;28;20671;-65
2021/01/19 00:52:41;;;;;;;0.90;0.80;;;21.20;49.40;;;;;;5014613;28;20267;-65
2021/01/19 00:55:11;;;;;;;1.50;0.90;;;21.20;49.40;;;;;;5016085;28;20198;-65
2021/01/19 00:57:37;;;;;;;1.03;0.80;;;21.20;49.40;;;;;;5016065;28;20611;-65
2021/01/19 01:00:07;;;;;;;1.33;0.93;;;21.10;49.30;;;;;;5015960;28;20438;-65
2021/01/19 01:02:37;;;;;;;1.10;0.87;;;21.10;49.30;;;;;;5015841;28;20196;-65
2021/01/19 01:05:04;;;;;;;1.17;0.90;;;21.10;49.40;;;;;;5015945;28;20387;-65
2021/01/19 01:07:34;;;;;;;1.20;0.80;;;21.10;49.40;;;;;;5016103;28;20447;-65
2021/01/19 01:10:01;;;;;;;1.53;0.90;;;21.10;49.30;;;;;;5015784;28;20429;-65
2021/01/19 01:12:26;;;;;;;0.97;0.87;;;21.10;49.30;;;;;;5015652;28;20455;-65
2021/01/19 01:14:53;;;;;;;1.20;1.10;;;21.10;49.30;;;;;;5015713;28;20403;-65
2021/01/19 01:17:18;;;;;;;1.40;1.00;;;21.20;49.40;;;;;;5015658;28;20259;-65
2021/01/19 01:19:44;;;;;;;1.13;0.90;;;21.10;49.20;;;;;;5015605;28;20461;-65
2021/01/19 01:22:09;;;;;;;1.53;1.30;;;21.20;49.40;;;;;;5015470;28;20188;-65
2021/01/19 01:24:35;;;;;;;1.20;0.93;;;21.20;49.30;;;;;;5015834;28;20686;-65
2021/01/19 01:27:00;;;;;;;1.33;1.00;;;21.20;49.30;;;;;;5015386;28;20286;-65
2021/01/19 01:29:26;;;;;;;1.10;0.87;;;21.10;49.20;;;;;;5015478;28;20168;-65
2021/01/19 01:31:52;;;;;;;1.20;0.90;;;21.10;49.30;;;;;;5015352;28;20561;-65
2021/01/19 01:34:17;;;;;;;1.30;1.00;;;21.10;49.30;;;;;;5014144;28;20169;-65
2021/01/19 01:36:43;;;;;;;1.00;0.70;;;21.10;49.30;;;;;;5015581;28;20168;-65
2021/01/19 01:39:08;;;;;;;1.33;0.90;;;21.10;49.30;;;;;;5015330;28;20521;-65
2021/01/19 01:41:34;;;;;;;1.20;1.00;;;21.10;49.30;;;;;;5015444;28;20200;-65
2021/01/19 01:44:03;;;;;;;1.10;0.90;;;21.10;49.30;;;;;;5015153;28;20180;-65
2021/01/19 01:46:34;;;;;;;0.90;0.70;;;21.10;49.30;;;;;;5015346;28;20184;-65
2021/01/19 01:49:01;;;;;;;1.30;1.00;;;21.10;49.30;;;;;;5015340;28;20937;-65
2021/01/19 01:51:28;;;;;;;1.17;0.80;;;21.10;49.30;;;;;;5015232;28;20404;-66
2021/01/19 01:53:56;;;;;;;1.10;1.00;;;21.10;49.90;;;;;;5015062;28;20407;-65
2021/01/19 01:56:22;;;;;;;1.70;1.00;;;21.00;49.30;;;;;;5015171;28;20434;-65
2021/01/19 01:58:48;;;;;;;0.80;0.67;;;21.10;49.30;;;;;;5014878;28;20914;-65
2021/01/19 02:01:14;;;;;;;1.47;1.03;;;21.10;49.40;;;;;;5014826;28;20414;-65
2021/01/19 02:03:40;;;;;;;1.20;0.90;;;21.10;49.50;;;;;;5014444;28;20196;-65
2021/01/19 02:06:06;;;;;;;0.97;0.70;;;21.00;49.40;;;;;;5014724;28;20196;-65
2021/01/19 02:08:58;;;;;;;1.20;0.90;;;21.00;49.40;;;;;;5014746;28;20518;-65
2021/01/19 02:11:32;;;;;;;1.40;1.03;;;21.00;49.40;;;;;;5014568;28;20552;-64
2021/01/19 02:14:19;;;;;;;1.00;0.77;;;21.00;49.40;;;;;;5014630;28;20392;-65
2021/01/19 02:16:56;;;;;;;0.93;0.70;;;21.00;49.40;;;;;;5014831;28;20875;-65
2021/01/19 02:19:52;;;;;;;1.00;0.90;;;21.00;49.40;;;;;;5014846;28;20490;-65
2021/01/19 02:22:57;;;;;;;1.10;0.90;;;21.00;49.40;;;;;;5014493;28;20937;-65
2021/01/19 02:25:32;;;;;;;1.30;0.90;;;21.00;49.40;;;;;;5014051;28;20419;-65
2021/01/19 02:28:20;;;;;;;1.17;1.07;;;21.00;49.40;;;;;;5014609;28;20411;-65
2021/01/19 02:31:00;;;;;;;1.23;0.93;;;21.00;49.40;;;;;;5014369;28;20399;-65
2021/01/19 02:33:32;;;;;;;1.00;0.70;;;20.90;49.40;;;;;;5014314;28;20411;-65
2021/01/19 02:36:23;;;;;;;1.10;0.90;;;21.00;49.50;;;;;;5014518;28;20415;-65
2021/01/19 02:39:02;;;;;;;1.33;1.00;;;21.00;49.40;;;;;;5014217;28;20407;-65
2021/01/19 02:41:28;;;;;;;1.17;0.80;;;21.00;49.40;;;;;;5014036;28;20399;-65
2021/01/19 02:44:17;;;;;;;1.70;1.03;;;21.00;49.40;;;;;;5014046;28;20415;-65
2021/01/19 02:46:43;;;;;;;1.73;1.03;;;21.00;49.30;;;;;;5014010;28;20968;-65
2021/01/19 02:49:09;;;;;;;1.20;1.00;;;21.00;49.30;;;;;;5013942;28;20437;-65
2021/01/19 02:51:34;;;;;;;1.30;1.17;;;21.00;49.30;;;;;;5014036;28;20168;-65
2021/01/19 02:54:01;;;;;;;1.63;0.90;;;21.00;49.30;;;;;;5013884;28;20510;-65
2021/01/19 02:56:41;;;;;;;1.30;1.00;;;21.00;49.20;;;;;;5013919;28;20227;-65
2021/01/19 02:59:37;;;;;;;1.20;0.80;;;21.00;49.20;;;;;;5012612;28;20411;-64
2021/01/19 03:02:11;;;;;;;1.10;1.00;;;21.00;49.20;;;;;;5011195;28;20439;-64
2021/01/19 03:04:39;;;;;;;1.40;1.30;;;21.00;49.20;;;;;;5013728;28;20407;-65
2021/01/19 03:07:09;;;;;;;1.20;0.90;;;21.00;49.20;;;;;;5013877;28;20454;-65
2021/01/19 03:09:39;;;;;;;2.10;1.30;;;21.00;49.20;;;;;;5013662;28;20410;-65
2021/01/19 03:12:06;;;;;;;1.30;1.13;;;21.00;49.10;;;;;;5013436;28;20462;-65
2021/01/19 03:14:36;;;;;;;1.40;0.80;;;21.00;49.10;;;;;;5011700;28;20407;-65
2021/01/19 03:17:06;;;;;;;1.50;1.03;;;21.00;49.10;;;;;;5013838;28;20419;-65
2021/01/19 03:19:36;;;;;;;1.10;0.90;;;21.00;49.10;;;;;;5013552;28;20415;-65
2021/01/19 03:22:02;;;;;;;1.33;1.10;;;21.00;49.10;;;;;;5013447;28;20462;-65
2021/01/19 03:24:27;;;;;;;1.00;0.77;;;20.90;49.00;;;;;;5013443;28;20848;-65
2021/01/19 03:26:53;;;;;;;1.50;0.97;;;21.00;49.10;;;;;;5013370;28;20697;-64
2021/01/19 03:29:19;;;;;;;1.47;1.00;;;20.90;49.10;;;;;;5013691;28;20196;-65
2021/01/19 03:31:44;;;;;;;1.00;0.90;;;20.90;49.10;;;;;;5013345;28;20234;-65
2021/01/19 03:34:10;;;;;;;2.43;1.40;;;20.90;49.10;;;;;;5013426;28;20722;-65
2021/01/19 03:36:35;;;;;;;1.30;1.00;;;20.90;49.10;;;;;;5013367;28;20176;-65
2021/01/19 03:39:01;;;;;;;1.83;0.90;;;20.90;49.00;;;;;;5013313;28;20511;-65
2021/01/19 03:41:27;;;;;;;1.37;0.90;;;20.90;49.00;;;;;;5013230;28;20260;-65
2021/01/19 03:43:52;;;;;;;1.50;1.40;;;20.90;49.00;;;;;;5013233;28;20183;-65
2021/01/19 03:46:18;;;;;;;1.70;1.10;;;20.90;48.90;;;;;;5013431;28;20204;-65
2021/01/19 03:48:43;;;;;;;3.43;1.50;;;21.00;49.00;;;;;;5013229;28;20164;-65
2021/01/19 03:51:09;;;;;;;1.50;1.00;;;21.00;49.00;;;;;;5013189;28;20227;-65
2021/01/19 03:53:35;;;;;;;1.30;1.00;;;21.00;48.90;;;;;;5013075;28;20192;-65
2021/01/19 03:56:00;;;;;;;2.37;0.97;;;21.00;48.90;;;;;;5013139;28;20486;-65
2021/01/19 03:58:26;;;;;;;1.20;0.80;;;20.90;48.80;;;;;;5013366;28;20246;-65
2021/01/19 04:00:51;;;;;;;1.70;1.10;;;20.90;48.80;;;;;;5013124;28;20177;-65
2021/01/19 04:03:17;;;;;;;1.27;1.00;;;21.00;48.90;;;;;;5013028;28;20622;-65
2021/01/19 04:05:42;;;;;;;1.80;1.10;;;21.00;48.80;;;;;;5013295;28;20177;-65
2021/01/19 04:08:08;;;;;;;1.20;1.00;;;21.00;48.80;;;;;;5012990;28;20180;-65
2021/01/19 04:10:34;;;;;;;1.43;1.13;;;21.00;48.80;;;;;;5012971;28;20199;-65
2021/01/19 04:12:59;;;;;;;1.30;0.90;;;21.00;48.70;;;;;;5012812;28;20208;-65
2021/01/19 04:15:25;;;;;;;1.40;1.17;;;21.00;48.70;;;;;;5011708;28;20592;-65
2021/01/19 04:17:51;;;;;;;1.30;1.00;;;21.00;48.70;;;;;;5012921;28;20169;-65
2021/01/19 04:20:17;;;;;;;2.10;1.20;;;21.00;48.70;;;;;;5012922;28;20502;-65
2021/01/19 04:22:43;;;;;;;1.70;1.23;;;21.00;48.70;;;;;;5013097;28;20207;-65
2021/01/19 04:25:08;;;;;;;1.20;0.90;;;21.00;48.70;;;;;;5013237;28;20172;-65
2021/01/19 04:27:34;;;;;;;1.90;1.10;;;21.00;48.70;;;;;;5016923;28;20287;-65
2021/01/19 04:30:04;;;;;;;2.10;1.10;;;21.00;48.70;;;;;;5016649;28;20921;-65
2021/01/19 04:32:29;;;;;;;1.00;0.70;;;21.00;48.70;;;;;;5016575;28;20219;-65
2021/01/19 04:34:55;;;;;;;1.20;1.03;;;21.00;48.70;;;;;;5016749;28;20889;-65
2021/01/19 04:37:21;;;;;;;1.37;1.10;;;21.00;48.60;;;;;;5016424;28;20260;-65
2021/01/19 04:39:47;;;;;;;1.17;0.90;;;21.00;48.70;;;;;;5016643;28;20176;-66
2021/01/19 04:42:18;;;;;;;1.20;0.90;;;21.00;48.70;;;;;;5016304;28;20982;-65
2021/01/19 04:44:44;;;;;;;1.10;1.00;;;21.00;48.70;;;;;;5016597;28;20164;-65
2021/01/19 04:47:11;;;;;;;1.33;1.13;;;20.90;48.50;;;;;;5016126;28;20837;-65
2021/01/19 04:49:38;;;;;;;1.00;0.80;;;20.90;48.60;;;;;;5016224;28;20417;-65
2021/01/19 04:52:04;;;;;;;1.10;0.80;;;20.90;48.60;;;;;;5016069;28;20434;-65
2021/01/19 04:54:40;;;;;;;2.00;1.03;;;20.90;48.60;;;;;;5014924;28;20834;-64
2021/01/19 04:57:13;;;;;;;1.03;0.83;;;20.90;48.70;;;;;;5016041;28;20418;-65
2021/01/19 04:59:49;;;;;;;1.10;0.93;;;20.90;48.70;;;;;;5016060;28;20928;-65
2021/01/19 05:02:14;;;;;;;1.33;1.00;;;20.90;49.30;;;;;;5016018;28;20431;-65
2021/01/19 05:04:48;;;;;;;1.10;0.90;;;20.90;48.70;;;;;;5015934;28;20446;-65
2021/01/19 05:07:31;;;;;;;1.33;0.90;;;20.80;48.70;;;;;;5016128;28;20239;-64
2021/01/19 05:10:05;;;;;;;1.97;0.90;;;20.90;48.70;;;;;;5015886;28;20392;-65
2021/01/19 05:12:58;;;;;;;1.10;0.80;;;20.80;48.70;;;;;;5015620;28;20875;-64
2021/01/19 05:15:25;;;;;;;2.00;0.90;;;20.80;48.70;;;;;;5016081;28;20391;-64
2021/01/19 05:17:54;;;;;;;1.00;0.80;;;20.80;48.70;;;;;;5015680;28;20450;-65
2021/01/19 05:20:21;;;;;;;1.03;0.87;;;20.80;48.70;;;;;;5015879;28;20426;-65
2021/01/19 05:22:49;;;;;;;1.17;0.73;;;20.80;48.70;;;;;;5015796;28;20447;-64
2021/01/19 05:25:15;;;;;;;1.20;0.90;;;20.70;48.70;;;;;;5015773;28;20415;-64
2021/01/19 05:27:40;;;;;;;1.30;0.90;;;20.70;48.80;;;;;;5015442;28;20528;-65
2021/01/19 05:30:07;;;;;;;1.67;0.97;;;20.70;48.80;;;;;;5015479;28;20180;-65
2021/01/19 05:32:41;;;;;;;1.53;0.70;;;20.70;48.80;;;;;;5015462;28;20192;-65
2021/01/19 05:35:16;;;;;;;1.30;0.90;;;20.70;48.80;;;;;;5015403;28;20933;-65
2021/01/19 05:38:03;;;;;;;1.50;0.90;;;20.70;48.80;;;;;;5014851;28;20442;-65
2021/01/19 05:40:29;;;;;;;1.40;1.07;;;20.70;48.70;;;;;;5015123;28;20427;-65
2021/01/19 05:42:55;;;;;;;1.10;0.90;;;20.70;48.80;;;;;;5015269;28;20469;-65
2021/01/19 05:45:21;;;;;;;1.00;0.80;;;20.70;48.80;;;;;;5015212;28;20415;-65
2021/01/19 05:47:47;;;;;;;1.00;0.70;;;20.70;49.30;;;;;;5013731;28;20842;-64
2021/01/19 05:50:13;;;;;;;0.90;0.80;;;20.70;48.70;;;;;;5015100;28;20411;-65
2021/01/19 05:52:39;;;;;;;1.93;1.10;;;20.70;48.70;;;;;;5015023;28;20188;-65
2021/01/19 05:55:06;;;;;;;1.10;0.93;;;20.70;48.80;;;;;;5015002;28;20415;-65
2021/01/19 05:57:31;;;;;;;1.00;0.80;;;20.70;48.70;;;;;;5015680;28;20415;-65
2021/01/19 06:00:03;;;;;;;1.00;0.87;;;20.70;48.60;;;;;;5014930;28;20411;-64
2021/01/19 06:02:37;;;;;;;0.97;0.70;;;20.80;48.70;;;;;;5014662;28;20206;-65
2021/01/19 06:05:16;;;;;;;1.33;1.10;;;20.80;48.60;;;;;;5014861;28;20427;-65
2021/01/19 06:07:46;;;;;;;1.37;0.90;;;20.80;48.60;;;;;;5014978;28;20450;-65
2021/01/19 06:10:18;;;;;;;1.30;0.80;;;20.80;48.50;;;;;;5014692;28;20410;-65
2021/01/19 06:12:43;;;;;;;1.43;0.70;;;20.80;48.50;;;;;;5014446;28;20928;-65
2021/01/19 06:15:10;;;;;;;1.50;0.87;;;20.90;48.60;;;;;;5014917;28;20392;-65
2021/01/19 06:17:36;;;;;;;1.30;0.87;;;20.90;48.50;;;;;;5014535;28;20186;-65
2021/01/19 06:20:05;;;;;;;1.10;0.90;;;20.90;48.50;;;;;;5014705;28;20407;-65
2021/01/19 06:22:33;;;;;;;1.03;0.80;;;20.90;48.50;;;;;;5014546;28;20498;-64
2021/01/19 06:25:01;;;;;;;1.10;0.80;;;20.90;48.50;;;;;;5014387;28;20412;-65
2021/01/19 06:27:28;;;;;;;1.30;0.97;;;20.90;49.00;;;;;;5014571;28;20462;-65
2021/01/19 06:30:00;;;;;;;0.97;0.70;;;20.90;48.40;;;;;;5014508;28;20891;-66
2021/01/19 06:32:49;;;;;;;1.17;0.80;;;20.90;48.50;;;;;;5015416;28;20459;-66
2021/01/19 06:35:22;;;;;;;0.90;0.80;;;21.00;48.50;;;;;;5014222;28;20898;-66
2021/01/19 06:37:52;;;;;;;1.00;0.70;;;21.00;48.50;;;;;;5014266;28;20487;-65
2021/01/19 06:40:20;;;;;;;1.00;0.70;;;21.00;48.50;;;;;;5013529;28;20407;-66
2021/01/19 06:43:02;;;;;;;0.93;0.77;;;21.00;48.50;;;;;;5012145;28;20526;-66
2021/01/19 06:45:28;;;;;;;0.97;0.80;;;21.10;48.60;;;;;;5013494;28;20880;-68
2021/01/19 06:47:55;;;;;;;0.80;0.60;;;21.10;48.60;;;;;;5012520;28;20463;-68
2021/01/19 06:50:26;;;;;;;1.20;0.80;;;21.10;48.50;;;;;;5011087;28;20415;-68
2021/01/19 06:53:11;;;;;;;0.90;0.80;;;21.10;48.50;;;;;;5010946;28;20451;-66
2021/01/19 06:55:38;;;;;;;1.00;0.70;;;21.10;48.50;;;;;;5011796;28;20392;-68
2021/01/19 06:58:11;;;;;;;1.17;0.73;;;21.10;48.50;;;;;;5013299;28;20408;-66
2021/01/19 07:00:39;;;;;;;1.20;0.80;;;21.10;48.50;;;;;;5013811;28;20764;-66
2021/01/19 07:03:22;;;;;;;1.30;0.77;;;21.10;48.50;;;;;;5013966;28;20458;-66
2021/01/19 07:06:02;;;;;;;0.87;0.60;;;21.20;48.60;;;;;;5013951;28;20410;-66
2021/01/19 07:09:05;;;;;;;1.27;0.70;;;21.20;48.60;;;;;;5013771;28;20392;-66
2021/01/19 07:11:53;;;;;;;0.80;0.60;;;21.20;48.60;;;;;;5013524;28;20462;-66
2021/01/19 07:14:38;;;;;;;0.90;0.70;;;21.20;48.60;;;;;;5013479;28;20411;-65
2021/01/19 07:17:15;;;;;;;0.90;0.60;;;21.20;48.60;;;;;;5013710;28;20396;-64
2021/01/19 07:19:50;;;;;;;1.13;0.70;;;21.20;48.60;;;;;;5013763;28;20403;-66
2021/01/19 07:22:34;;;;;;;0.90;0.70;;;21.20;48.60;;;;;;5013399;28;20849;-66
2021/01/19 07:25:00;;;;;;;0.80;0.60;;;21.10;48.50;;;;;;5013526;28;20391;-64
2021/01/19 07:27:27;;;;;;;1.47;0.80;;;21.20;48.60;;;;;;5013364;28;20458;-65
2021/01/19 07:29:53;;;;;;;1.00;0.77;;;21.20;48.60;;;;;;5013474;28;20235;-65
2021/01/19 07:32:25;;;;;;;0.90;0.70;;;21.20;49.10;;;;;;5013311;28;20962;-66
2021/01/19 07:34:51;;;;;;;0.90;0.63;;;21.20;48.60;;;;;;5013575;28;20414;-65
2021/01/19 07:37:29;;;;;;;1.10;0.80;;;21.20;48.60;;;;;;5013304;28;20418;-66
2021/01/19 07:39:54;;;;;;;1.10;0.87;;;21.20;48.50;;;;;;5013206;28;20909;-66
2021/01/19 07:42:20;;;;;;;1.10;0.70;;;21.20;48.50;;;;;;5013094;28;20470;-65
2021/01/19 07:45:01;;;;;;;0.80;0.60;;;21.20;48.50;;;;;;5013538;28;20298;-66
2021/01/19 07:47:38;;;;;;;0.90;0.70;;;21.20;48.50;;;;;;5013212;28;20465;-65
2021/01/19 07:50:13;;;;;;;1.00;0.70;;;21.30;48.70;;;;;;5013229;28;20881;-66
2021/01/19 07:52:44;;;;;;;1.03;0.67;;;21.20;48.60;;;;;;5013131;28;20419;-66
2021/01/19 07:55:23;;;;;;;0.97;0.80;;;21.20;48.60;;;;;;5013399;28;20388;-66
2021/01/19 07:57:50;;;;;;;1.40;0.73;;;21.30;48.70;;;;;;5013094;28;20490;-66
2021/01/19 08:00:22;;;;;;;1.00;0.73;;;21.30;48.70;;;;;;5013162;28;20407;-66
2021/01/19 08:02:47;;;;;;;1.20;0.80;;;21.30;48.60;;;;;;5017278;28;20430;-66
2021/01/19 08:05:13;;;;;;;1.00;0.60;;;21.20;48.60;;;;;;5017133;28;20963;-65
2021/01/19 08:07:44;;;;;;;1.10;0.80;;;21.30;48.70;;;;;;5015680;28;20216;-65
2021/01/19 08:10:26;;;;;;;1.00;0.70;;;21.30;48.70;;;;;;5017219;28;20391;-65
2021/01/19 08:12:55;;;;;;;0.80;0.60;;;21.30;48.70;;;;;;5015559;28;20451;-67
2021/01/19 08:15:34;;;;;;;0.80;0.60;;;21.30;48.70;;;;;;5015737;28;20437;-64
2021/01/19 08:18:04;;;;;;;0.83;0.60;;;21.20;48.60;;;;;;5014744;28;20452;-64
2021/01/19 08:20:34;;;;;;;1.10;0.70;;;21.20;48.60;;;;;;5014935;28;20415;-66
2021/01/19 08:23:14;;;;;;;1.10;0.80;;;21.30;48.70;;;;;;5014468;28;20439;-66
2021/01/19 08:25:40;;;;;;;0.87;0.70;;;21.30;48.70;;;;;;5014497;28;20419;-65
2021/01/19 08:28:08;;;;;;;0.80;0.60;;;21.30;48.70;;;;;;5015161;28;20431;-65
2021/01/19 08:30:34;;;;;;;0.80;0.60;;;21.20;48.60;;;;;;5016868;28;20461;-65
2021/01/19 08:33:00;;;;;;;1.00;0.63;;;21.20;48.60;;;;;;5016515;28;20439;-68
2021/01/19 08:35:28;;;;;;;1.00;0.70;;;21.30;48.70;;;;;;5016797;28;20734;-65
2021/01/19 08:38:02;;;;;;;0.90;0.70;;;21.30;48.70;;;;;;5015231;28;20487;-65
2021/01/19 08:40:33;;;;;;;1.50;0.70;;;21.20;48.60;;;;;;5016431;28;20407;-63
2021/01/19 08:42:59;;;;;;;1.40;0.70;;;21.30;48.70;;;;;;5015170;28;20443;-65
2021/01/19 08:45:31;;;;;;;0.90;0.80;;;21.30;48.70;;;;;;5016295;28;20411;-65
2021/01/19 08:47:59;;;;;;;1.43;1.00;;;21.20;48.60;;;;;;5016512;28;20819;-65
2021/01/19 08:50:26;;;;;;;1.60;1.00;;;21.30;48.70;;;;;;5016760;28;20806;-66
2021/01/19 08:52:52;;;;;;;1.20;0.80;;;21.20;48.60;;;;;;5017014;28;20489;-65
2021/01/19 08:55:25;;;;;;;2.07;0.80;;;21.30;48.70;;;;;;5015142;28;20445;-65
2021/01/19 08:58:00;;;;;;;1.83;1.00;;;21.30;48.70;;;;;;5017565;28;20159;-65
2021/01/19 09:00:33;;;;;;;2.27;0.83;;;21.30;48.70;;;;;;5016417;28;20414;-65
2021/01/19 09:02:59;;;;;;;1.33;0.80;;;21.20;48.60;;;;;;5014796;28;20811;-67
2021/01/19 09:05:27;;;;;;;1.70;1.23;;;21.30;48.70;;;;;;5015908;28;20474;-66
2021/01/19 09:07:53;;;;;;;1.50;0.97;;;21.20;48.60;;;;;;5016177;28;20509;-65
2021/01/19 09:10:20;;;;;;;1.20;1.00;;;21.30;48.70;;;;;;5016315;28;20388;-65
2021/01/19 09:12:47;;;;;;;1.50;1.10;;;21.30;48.70;;;;;;5014548;28;20451;-64
2021/01/19 09:15:14;;;;;;;1.30;0.87;;;21.30;48.70;;;;;;5016102;28;20403;-64
2021/01/19 09:17:40;;;;;;;2.13;1.10;;;21.30;48.70;;;;;;5015996;28;20482;-65
2021/01/19 09:20:08;;;;;;;2.13;1.40;;;21.30;48.70;;;;;;5015614;28;20440;-64
2021/01/19 09:22:33;;;;;;;1.63;1.27;;;21.30;48.70;;;;;;5015588;28;20195;-66
2021/01/19 09:24:59;;;;;;;3.03;1.60;;;21.30;48.70;;;;;;5014911;28;20408;-66
2021/01/19 09:27:25;;;;;;;2.40;1.40;;;21.30;48.70;;;;;;5014421;28;20192;-65
2021/01/19 09:29:50;;;;;;;1.93;1.73;;;21.30;48.70;;;;;;5014718;28;20169;-66
2021/01/19 09:32:18;;;;;;;1.90;1.10;;;21.30;48.70;;;;;;5013408;28;20199;-65
2021/01/19 09:34:47;;;;;;;2.37;1.30;;;21.30;48.70;;;;;;5014838;28;20414;-61
2021/01/19 09:37:13;;;;;;;1.50;1.20;;;21.30;49.20;;;;;;5014634;28;20411;-65
2021/01/19 09:39:41;;;;;;;1.60;1.00;;;21.30;48.70;;;;;;5014857;28;20431;-66
2021/01/19 09:42:07;;;;;;;2.80;1.10;;;21.30;48.70;;;;;;5014134;28;20854;-64
2021/01/19 09:44:34;;;;;;;1.77;1.10;;;21.20;48.60;;;;;;5015649;28;20391;-66
2021/01/19 09:47:02;;;;;;;1.50;1.10;;;21.30;48.70;;;;;;5015196;28;20937;-65
2021/01/19 09:49:28;;;;;;;1.60;0.90;;;21.30;48.70;;;;;;5015277;28;20491;-66
2021/01/19 09:51:54;;;;;;;3.23;2.13;;;21.30;48.70;;;;;;5014960;28;20419;-64
2021/01/19 09:54:24;;;;;;;5.40;3.13;;;21.30;48.70;;;;;;5015232;28;20410;-63
2021/01/19 09:56:56;;;;;;;6.13;3.30;;;21.30;48.70;;;;;;5015380;28;20746;-63
2021/01/19 09:59:30;;;;;;;8.47;4.13;;;21.30;48.70;;;;;;5015022;28;20418;-66
2021/01/19 10:01:56;;;;;;;4.77;3.10;;;21.30;48.70;;;;;;5015050;28;20434;-66
2021/01/19 10:04:24;;;;;;;7.10;4.10;;;21.30;48.70;;;;;;5015372;28;20442;-68
2021/01/19 10:07:10;;;;;;;12.73;6.67;;;21.30;48.70;;;;;;5016014;28;20451;-67
2021/01/19 10:09:37;;;;;;;11.80;5.30;;;21.30;48.80;;;;;;5015124;28;20463;-68
2021/01/19 10:12:06;;;;;;;7.13;5.77;;;21.20;48.80;;;;;;5015115;28;21084;-64
2021/01/19 10:14:41;;;;;;;10.23;6.30;;;21.30;48.80;;;;;;5016332;28;20809;-66
2021/01/19 10:17:08;;;;;;;12.33;7.67;;;21.30;48.80;;;;;;5015103;28;20502;-66
2021/01/19 10:19:36;;;;;;;13.90;7.70;;;21.30;48.80;;;;;;5014567;28;20884;-65
2021/01/19 10:22:09;;;;;;;13.43;7.70;;;21.30;48.80;;;;;;5014415;28;20423;-66
2021/01/19 10:24:35;;;;;;;17.83;7.00;;;21.40;48.90;;;;;;5012857;28;20424;-65
2021/01/19 10:27:08;;;;;;;11.60;7.00;;;21.40;49.40;;;;;;5014537;28;20450;-66
2021/01/19 10:29:40;;;;;;;13.20;8.63;;;21.50;49.00;;;;;;5014653;28;20820;-66
2021/01/19 10:32:13;;;;;;;11.93;7.80;;;21.40;48.90;;;;;;5014417;28;20423;-63
2021/01/19 10:34:49;;;;;;;12.17;6.60;;;21.50;48.90;;;;;;5013459;28;20424;-68
2021/01/19 10:37:16;;;;;;;11.80;7.83;;;21.50;49.00;;;;;;5013617;28;20426;-65
2021/01/19 10:39:56;;;;;;;12.93;9.13;;;21.50;48.90;;;;;;5012260;28;20902;-68
2021/01/19 10:42:27;;;;;;;12.10;7.80;;;21.50;48.90;;;;;;5013760;28;20427;-67
2021/01/19 10:44:57;;;;;;;9.67;6.80;;;21.50;48.80;;;;;;5013286;28;20797;-67
2021/01/19 10:47:23;;;;;;;13.27;7.50;;;21.60;48.90;;;;;;5012829;28;20817;-66
2021/01/19 10:49:48;;;;;;;13.77;7.53;;;21.50;48.80;;;;;;5012780;28;20495;-66
2021/01/19 10:52:14;;;;;;;13.40;7.77;;;21.60;48.80;;;;;;5013947;28;20192;-67
2021/01/19 10:54:40;;;;;;;12.67;8.10;;;21.60;48.80;;;;;;5013292;28;20176;-67
2021/01/19 10:57:07;;;;;;;12.50;8.57;;;21.60;48.80;;;;;;5016455;28;20267;-66
2021/01/19 10:59:34;;;;;;;12.63;8.37;;;21.60;48.90;;;;;;5017388;28;20188;-67
2021/01/19 11:02:00;;;;;;;11.20;7.00;;;21.60;48.80;;;;;;5015115;28;20427;-68
2021/01/19 11:04:26;;;;;;;12.80;7.43;;;21.60;48.80;;;;;;5014714;28;20485;-67
2021/01/19 11:06:52;;;;;;;12.97;7.97;;;21.60;48.80;;;;;;5013948;28;20476;-66
2021/01/19 11:09:18;;;;;;;16.50;7.70;;;21.60;48.80;;;;;;5014143;28;20172;-67
2021/01/19 11:11:44;;;;;;;14.03;7.93;;;21.70;48.80;;;;;;5013969;28;20434;-66
2021/01/19 11:14:10;;;;;;;14.17;8.10;;;21.70;48.80;;;;;;5014084;28;20913;-65
2021/01/19 11:16:39;;;;;;;13.63;9.13;;;21.70;48.80;;;;;;5013826;28;20441;-68
2021/01/19 11:19:08;;;;;;;12.90;8.50;;;21.70;48.80;;;;;;5013625;28;20407;-66
2021/01/19 11:21:35;;;;;;;26.77;14.57;;;21.70;48.80;;;;;;5013901;28;20419;-65
2021/01/19 11:24:02;;;;;;;25.20;14.40;;;21.70;48.90;;;;;;5013404;28;20470;-65
2021/01/19 11:26:28;;;;;;;18.37;11.40;;;21.70;48.80;;;;;;5013401;28;20470;-65
2021/01/19 11:28:55;;;;;;;23.00;11.47;;;21.70;48.80;;;;;;5013505;28;20450;-65
2021/01/19 11:31:26;;;;;;;18.40;10.87;;;21.70;48.80;;;;;;5013464;28;20522;-65
2021/01/19 11:33:52;;;;;;;18.73;10.00;;;21.80;48.80;;;;;;5013426;28;20429;-65
2021/01/19 11:36:26;;;;;;;16.23;10.43;;;21.80;48.80;;;;;;5012769;28;20961;-66
2021/01/19 11:38:53;;;;;;;23.13;13.30;;;21.80;48.90;;;;;;5013773;28;20160;-65
2021/01/19 11:41:21;;;;;;;22.63;13.90;;;21.70;48.90;;;;;;5013888;28;20407;-65
2021/01/19 11:43:47;;;;;;;17.97;12.33;;;21.80;48.90;;;;;;5014506;28;20442;-65
2021/01/19 11:46:25;;;;;;;22.93;12.90;;;21.80;48.90;;;;;;5013664;28;20447;-64
2021/01/19 11:48:51;;;;;;;20.87;11.57;;;21.80;48.90;;;;;;5013870;28;20391;-65
2021/01/19 11:51:19;;;;;;;20.90;12.03;;;21.80;48.90;;;;;;5014386;28;20820;-67
2021/01/19 11:53:50;;;;;;;25.10;13.10;;;21.80;48.80;;;;;;5014101;28;20467;-66
2021/01/19 11:56:16;;;;;;;17.07;10.53;;;21.80;48.80;;;;;;5013756;28;20407;-66
2021/01/19 11:58:46;;;;;;;21.50;12.30;;;21.80;48.80;;;;;;5013349;28;20793;-64
2021/01/19 12:01:19;;;;;;;18.27;11.30;;;21.80;48.80;;;;;;5012210;28;20421;-66
2021/01/19 12:03:44;;;;;;;23.23;11.67;;;21.80;48.80;;;;;;5013876;28;20450;-67
2021/01/19 12:06:10;;;;;;;18.10;11.20;;;21.80;48.80;;;;;;5018254;28;20455;-68
2021/01/19 12:08:36;;;;;;;22.43;12.90;;;21.80;48.80;;;;;;5014623;28;20176;-68
2021/01/19 12:11:01;;;;;;;20.23;11.63;;;21.90;48.90;;;;;;5013215;28;20168;-68
2021/01/19 12:13:27;;;;;;;20.70;11.20;;;21.80;48.80;;;;;;5013213;28;20227;-66
2021/01/19 12:15:53;;;;;;;16.40;10.00;;;21.80;48.80;;;;;;5013529;28;20534;-66
2021/01/19 12:18:18;;;;;;;17.30;12.20;;;21.80;48.80;;;;;;5013355;28;20173;-66
2021/01/19 12:20:44;;;;;;;16.67;10.00;;;21.80;48.80;;;;;;5014519;28;20642;-66
2021/01/19 12:23:10;;;;;;;16.80;11.07;;;21.90;48.90;;;;;;5013059;28;20192;-66
2021/01/19 12:25:35;;;;;;;17.33;11.57;;;21.90;48.90;;;;;;5013059;28;20530;-66
2021/01/19 12:28:02;;;;;;;19.80;10.47;;;21.90;49.50;;;;;;4995484;28;20451;-64
2021/01/19 12:30:29;;;;;;;16.87;10.20;;;21.90;48.90;;;;;;5013626;28;20551;-64
2021/01/19 12:32:55;;;;;;;18.80;10.43;;;21.90;48.90;;;;;;5013993;28;20427;-64
2021/01/19 12:35:21;;;;;;;22.00;10.77;;;21.90;48.90;;;;;;5013583;28;20419;-64
2021/01/19 12:37:47;;;;;;;16.20;10.57;;;21.90;48.90;;;;;;5013537;28;20768;-63
2021/01/19 12:40:13;;;;;;;18.00;10.70;;;21.90;48.90;;;;;;5014604;28;20499;-64
2021/01/19 12:42:39;;;;;;;18.47;10.50;;;21.90;48.90;;;;;;5011899;28;20200;-64
2021/01/19 12:45:06;;;;;;;15.43;10.13;;;21.90;48.90;;;;;;5014386;28;20434;-63
2021/01/19 12:47:32;;;;;;;15.17;9.27;;;21.90;48.90;;;;;;5014880;28;20466;-64
2021/01/19 12:49:57;;;;;;;14.77;10.13;;;21.90;48.90;;;;;;5016539;28;20437;-63
2021/01/19 12:52:23;;;;;;;13.80;9.30;;;21.90;48.90;;;;;;5017642;28;20534;-64
2021/01/19 12:54:49;;;;;;;12.57;8.60;;;21.90;48.90;;;;;;5018098;28;20173;-64